Time;durP1;ratioP1;P1;durP2;ratioP2;P2;SDS_P1;SDS_P2;PMS_P1;PMS_P2;Temp;Humidity;BMP_temperature;BMP_pressure;BME280_temperature;BME280_humidity;BME280_pressure;Samples;Min_cycle;Max_cycle;Signal;HPM_P1;HPM_P2
2021/04/04 00:02:01;;;;;;;16.10;8.40;;;9.70;99.90;;;;;;5043497;28;20212;-69
2021/04/04 00:04:28;;;;;;;13.83;8.47;;;9.60;99.90;;;;;;5038963;28;20217;-69
2021/04/04 00:06:54;;;;;;;14.57;8.43;;;9.60;99.90;;;;;;5019018;28;20180;-67
2021/04/04 00:09:21;;;;;;;18.80;8.00;;;9.70;99.90;;;;;;5034362;28;20192;-68
2021/04/04 00:11:49;;;;;;;15.00;8.10;;;9.70;99.90;;;;;;5052032;27;20192;-68
2021/04/04 00:14:16;;;;;;;10.00;7.43;;;9.70;99.90;;;;;;5047182;27;20820;-68
2021/04/04 00:16:43;;;;;;;20.07;8.37;;;9.60;99.90;;;;;;5061606;27;20572;-67
2021/04/04 00:19:10;;;;;;;10.20;7.83;;;9.60;99.90;;;;;;5037685;27;20708;-67
2021/04/04 00:21:36;;;;;;;9.07;8.03;;;9.40;99.90;;;;;;5050183;27;20208;-67
2021/04/04 00:24:06;;;;;;;19.07;8.57;;;9.50;99.90;;;;;;5041446;27;20181;-70
2021/04/04 00:26:32;;;;;;;12.77;8.27;;;9.50;99.90;;;;;;5025559;27;20187;-70
2021/04/04 00:28:59;;;;;;;11.87;7.80;;;9.50;99.90;;;;;;5047590;27;20173;-70
2021/04/04 00:31:25;;;;;;;15.60;8.37;;;9.50;99.90;;;;;;5031644;27;20214;-70
2021/04/04 00:33:51;;;;;;;17.57;8.93;;;9.50;99.90;;;;;;5065194;27;20235;-70
2021/04/04 00:36:17;;;;;;;15.20;8.27;;;9.50;99.90;;;;;;5041992;27;20284;-70
2021/04/04 00:38:44;;;;;;;17.43;8.60;;;9.60;99.90;;;;;;5024119;27;20188;-70
2021/04/04 00:41:10;;;;;;;12.77;7.63;;;9.60;99.90;;;;;;5044462;27;20488;-70
2021/04/04 00:43:36;;;;;;;13.47;8.43;;;9.40;99.90;;;;;;5038971;27;20212;-70
2021/04/04 00:46:02;;;;;;;9.80;7.73;;;9.30;99.90;;;;;;5033285;27;20188;-70
2021/04/04 00:48:29;;;;;;;12.20;8.60;;;9.10;99.90;;;;;;5061182;28;20280;-68
2021/04/04 00:50:55;;;;;;;16.40;8.03;;;9.20;99.90;;;;;;5049915;27;20819;-68
2021/04/04 00:53:21;;;;;;;13.50;9.10;;;9.30;99.90;;;;;;5041820;27;20197;-68
2021/04/04 00:55:47;;;;;;;20.00;9.23;;;9.40;99.90;;;;;;5049059;27;20203;-68
2021/04/04 00:58:14;;;;;;;12.53;8.13;;;9.50;99.90;;;;;;5049005;27;20266;-68
2021/04/04 01:00:40;;;;;;;10.33;8.03;;;9.50;99.90;;;;;;5053572;27;20212;-68
2021/04/04 01:03:07;;;;;;;14.00;7.80;;;9.40;99.90;;;;;;5039495;27;20211;-68
2021/04/04 01:05:40;;;;;;;16.00;8.53;;;9.40;99.90;;;;;;5059840;27;20241;-68
2021/04/04 01:08:08;;;;;;;13.40;7.67;;;9.40;99.90;;;;;;5032748;27;20954;-68
2021/04/04 01:10:43;;;;;;;17.37;8.87;;;9.30;99.90;;;;;;5017453;27;20181;-68
2021/04/04 01:13:33;;;;;;;16.53;8.63;;;9.20;99.90;;;;;;5039849;27;20231;-67
2021/04/04 01:16:16;;;;;;;16.10;9.10;;;9.40;99.90;;;;;;5040102;27;20193;-66
2021/04/04 01:19:09;;;;;;;10.57;8.00;;;9.40;99.90;;;;;;5054063;27;20672;-66
2021/04/04 01:21:54;;;;;;;14.33;8.10;;;9.40;99.90;;;;;;5052174;27;20212;-69
2021/04/04 01:24:45;;;;;;;14.97;7.90;;;9.50;99.90;;;;;;5045716;27;20636;-69
2021/04/04 01:27:46;;;;;;;13.97;8.50;;;9.50;99.90;;;;;;5041011;27;20736;-69
2021/04/04 01:30:16;;;;;;;14.17;8.07;;;9.60;99.90;;;;;;5056871;27;20281;-69
2021/04/04 01:32:46;;;;;;;17.53;8.67;;;9.60;99.90;;;;;;5044072;27;20229;-69
2021/04/04 01:35:18;;;;;;;14.87;8.17;;;9.60;99.90;;;;;;5020401;27;20196;-69
2021/04/04 01:37:50;;;;;;;14.83;7.83;;;9.60;99.90;;;;;;5047220;27;20232;-69
2021/04/04 01:40:21;;;;;;;16.57;8.57;;;9.70;99.90;;;;;;5040822;27;20212;-69
2021/04/04 01:42:51;;;;;;;14.50;7.70;;;9.80;99.90;;;;;;5045358;27;20212;-69
2021/04/04 01:45:21;;;;;;;15.07;7.70;;;9.80;99.90;;;;;;5061636;27;20239;-69
2021/04/04 01:47:49;;;;;;;11.40;7.73;;;9.80;99.90;;;;;;5065762;27;20185;-68
2021/04/04 01:50:16;;;;;;;13.23;8.23;;;9.80;99.90;;;;;;5102363;27;20203;-67
2021/04/04 01:52:43;;;;;;;14.43;7.30;;;9.80;99.90;;;;;;5061766;27;20882;-67
2021/04/04 01:55:12;;;;;;;11.30;6.80;;;9.70;99.90;;;;;;5052721;27;20275;-67
2021/04/04 01:57:40;;;;;;;11.27;7.30;;;9.60;99.90;;;;;;5052016;27;20223;-68
2021/04/04 02:00:18;;;;;;;15.70;7.77;;;9.50;99.90;;;;;;5041496;27;20188;-67
2021/04/04 02:02:49;;;;;;;14.03;8.23;;;9.50;99.90;;;;;;5032661;27;20186;-68
2021/04/04 02:05:18;;;;;;;13.67;7.97;;;9.60;99.90;;;;;;5037644;27;20204;-67
2021/04/04 02:07:49;;;;;;;10.63;7.03;;;9.60;99.90;;;;;;5036280;27;20181;-67
2021/04/04 02:10:23;;;;;;;18.07;7.67;;;9.50;99.90;;;;;;5027144;27;20189;-68
2021/04/04 02:12:52;;;;;;;12.73;7.57;;;9.50;99.90;;;;;;5066724;27;20196;-69
2021/04/04 02:15:21;;;;;;;14.73;7.67;;;9.50;99.90;;;;;;5042334;27;20601;-69
2021/04/04 02:17:49;;;;;;;11.60;7.63;;;9.50;99.90;;;;;;5104106;27;20188;-69
2021/04/04 02:20:20;;;;;;;11.57;7.50;;;9.50;99.90;;;;;;5042865;27;20181;-69
2021/04/04 02:22:47;;;;;;;9.97;7.80;;;9.50;99.90;;;;;;5045832;27;20553;-69
2021/04/04 02:25:16;;;;;;;13.53;7.90;;;9.50;99.90;;;;;;5045276;27;20807;-69
2021/04/04 02:27:47;;;;;;;12.10;7.63;;;9.60;99.90;;;;;;5030397;27;20176;-69
2021/04/04 02:30:17;;;;;;;10.77;7.03;;;9.60;99.90;;;;;;5051310;27;20209;-69
2021/04/04 02:32:53;;;;;;;15.00;7.70;;;9.60;99.90;;;;;;5042325;27;20192;-69
2021/04/04 02:35:30;;;;;;;11.30;8.33;;;9.60;99.90;;;;;;5029582;27;20180;-69
2021/04/04 02:37:59;;;;;;;12.97;8.70;;;9.60;99.90;;;;;;5026129;27;20188;-69
2021/04/04 02:40:27;;;;;;;17.33;8.20;;;9.60;99.90;;;;;;5026044;27;20255;-69
2021/04/04 02:42:57;;;;;;;13.37;7.30;;;9.60;99.90;;;;;;5028149;27;20260;-69
2021/04/04 02:45:26;;;;;;;16.90;7.47;;;9.40;99.90;;;;;;5047450;27;20208;-68
2021/04/04 02:48:06;;;;;;;10.87;7.60;;;9.40;99.90;;;;;;5025907;28;20192;-69
2021/04/04 02:50:36;;;;;;;13.47;7.40;;;9.30;99.90;;;;;;5109491;27;20266;-69
2021/04/04 02:53:04;;;;;;;13.60;7.57;;;9.30;99.90;;;;;;5043447;27;20181;-69
2021/04/04 02:55:36;;;;;;;14.73;7.43;;;9.30;99.90;;;;;;5016046;28;20196;-69
2021/04/04 02:58:08;;;;;;;13.90;7.73;;;9.40;99.90;;;;;;5030178;27;20220;-69
2021/04/04 03:00:39;;;;;;;12.53;7.70;;;9.40;99.90;;;;;;5026301;27;20569;-68
2021/04/04 03:03:08;;;;;;;12.87;8.10;;;9.30;99.90;;;;;;5016048;28;20263;-69
2021/04/04 03:05:35;;;;;;;13.80;7.30;;;9.40;99.90;;;;;;5034587;27;20288;-69
2021/04/04 03:08:06;;;;;;;11.57;7.37;;;9.30;99.90;;;;;;5039023;28;20184;-69
2021/04/04 03:10:35;;;;;;;10.77;7.47;;;9.30;99.90;;;;;;5049140;27;20188;-69
2021/04/04 03:13:03;;;;;;;12.07;7.13;;;9.40;99.90;;;;;;5033016;28;20192;-69
2021/04/04 03:15:30;;;;;;;12.77;7.53;;;9.40;99.90;;;;;;5053483;28;20184;-69
2021/04/04 03:17:58;;;;;;;10.10;7.03;;;9.40;99.90;;;;;;5039268;28;20584;-69
2021/04/04 03:20:27;;;;;;;13.13;7.60;;;9.40;99.90;;;;;;5035925;27;20208;-69
2021/04/04 03:22:56;;;;;;;10.40;7.37;;;9.40;99.90;;;;;;5050409;28;20172;-69
2021/04/04 03:25:25;;;;;;;8.67;6.90;;;9.40;99.90;;;;;;5038408;27;20846;-69
2021/04/04 03:27:54;;;;;;;11.73;7.23;;;9.30;99.90;;;;;;5038498;28;20191;-69
2021/04/04 03:30:35;;;;;;;9.83;6.63;;;9.30;99.90;;;;;;5049841;28;20184;-70
2021/04/04 03:33:07;;;;;;;12.67;7.93;;;9.20;99.90;;;;;;5045986;27;20194;-69
2021/04/04 03:35:35;;;;;;;13.60;7.57;;;9.00;99.90;;;;;;5034634;27;20196;-69
2021/04/04 03:38:08;;;;;;;12.23;7.73;;;8.90;99.90;;;;;;5049534;28;20195;-70
2021/04/04 03:40:35;;;;;;;20.97;8.50;;;9.10;99.90;;;;;;5006176;28;20592;-69
2021/04/04 03:43:18;;;;;;;13.70;8.10;;;9.20;99.90;;;;;;5021911;28;20566;-69
2021/04/04 03:45:45;;;;;;;14.97;7.83;;;9.30;99.90;;;;;;5052882;28;20192;-69
2021/04/04 03:48:12;;;;;;;10.20;7.67;;;9.30;99.90;;;;;;5046073;27;20172;-69
2021/04/04 03:50:40;;;;;;;11.20;7.80;;;9.30;99.90;;;;;;5047473;27;20192;-68
2021/04/04 03:53:07;;;;;;;13.53;7.87;;;9.30;99.90;;;;;;5035444;27;20241;-68
2021/04/04 03:55:35;;;;;;;10.90;7.50;;;9.30;99.90;;;;;;5047065;27;20205;-68
2021/04/04 03:58:04;;;;;;;12.37;7.37;;;9.30;99.90;;;;;;5056511;27;20180;-68
2021/04/04 04:00:35;;;;;;;18.87;8.03;;;9.40;99.90;;;;;;5036675;27;20208;-68
2021/04/04 04:03:03;;;;;;;12.70;7.00;;;9.50;99.90;;;;;;5059954;27;20216;-68
2021/04/04 04:05:31;;;;;;;12.07;7.43;;;9.50;99.90;;;;;;5051155;27;20707;-68
2021/04/04 04:07:59;;;;;;;13.80;7.60;;;9.50;99.90;;;;;;5044759;27;20275;-69
2021/04/04 04:10:27;;;;;;;19.07;7.73;;;9.50;99.90;;;;;;5045236;27;20188;-68
2021/04/04 04:12:57;;;;;;;17.30;7.10;;;9.60;99.90;;;;;;5051791;27;20187;-68
2021/04/04 04:15:25;;;;;;;11.17;7.47;;;9.70;99.90;;;;;;5039616;27;20583;-68
2021/04/04 04:17:52;;;;;;;16.57;7.50;;;9.70;99.90;;;;;;5046897;27;20265;-68
2021/04/04 04:20:19;;;;;;;14.07;7.20;;;9.80;99.90;;;;;;5021938;28;20652;-68
2021/04/04 04:22:45;;;;;;;15.60;7.60;;;9.80;99.90;;;;;;5032922;27;20231;-68
2021/04/04 04:25:13;;;;;;;13.50;7.50;;;9.80;99.90;;;;;;5006306;28;20980;-69
2021/04/04 04:27:42;;;;;;;12.77;7.87;;;9.90;99.90;;;;;;5047872;27;20212;-70
2021/04/04 04:30:10;;;;;;;12.37;7.10;;;9.90;99.90;;;;;;5057173;27;20190;-69
2021/04/04 04:32:40;;;;;;;11.10;7.43;;;10.00;99.90;;;;;;5054617;27;20189;-69
2021/04/04 04:35:09;;;;;;;11.03;7.53;;;10.10;99.90;;;;;;5052075;27;20180;-69
2021/04/04 04:37:39;;;;;;;12.43;7.60;;;10.10;99.90;;;;;;5029511;27;20189;-69
2021/04/04 04:40:11;;;;;;;14.57;7.50;;;10.10;99.90;;;;;;5022732;27;20200;-69
2021/04/04 04:42:42;;;;;;;8.50;6.57;;;10.10;99.90;;;;;;5032236;27;20196;-69
2021/04/04 04:45:35;;;;;;;12.87;6.70;;;10.10;99.90;;;;;;5030363;27;20215;-69
2021/04/04 04:48:02;;;;;;;12.10;6.80;;;10.20;99.90;;;;;;5020414;28;21011;-68
2021/04/04 04:50:30;;;;;;;12.63;7.20;;;10.20;99.90;;;;;;5046753;27;20192;-69
2021/04/04 04:53:00;;;;;;;12.17;7.00;;;10.20;99.90;;;;;;5038425;27;20185;-70
2021/04/04 04:55:27;;;;;;;11.77;7.43;;;10.30;99.90;;;;;;5044171;27;20229;-69
2021/04/04 04:57:55;;;;;;;10.87;6.87;;;10.50;99.90;;;;;;5041291;27;20177;-69
2021/04/04 05:00:24;;;;;;;12.57;7.13;;;10.50;99.90;;;;;;5041995;27;20200;-69
2021/04/04 05:02:51;;;;;;;12.83;7.80;;;10.60;99.90;;;;;;5044186;27;20192;-69
2021/04/04 05:05:18;;;;;;;11.37;7.33;;;10.70;99.90;;;;;;5059565;27;20215;-70
2021/04/04 05:07:46;;;;;;;11.53;6.77;;;10.80;99.90;;;;;;5025688;27;20188;-70
2021/04/04 05:10:14;;;;;;;12.30;8.07;;;10.80;99.90;;;;;;5034773;27;20191;-69
2021/04/04 05:13:05;;;;;;;17.07;7.63;;;11.00;99.90;;;;;;5021697;27;20261;-69
2021/04/04 05:15:31;;;;;;;11.47;7.23;;;11.30;99.90;;;;;;5050300;27;20200;-69
2021/04/04 05:17:58;;;;;;;11.27;6.90;;;11.40;99.90;;;;;;5043970;27;20212;-71
2021/04/04 05:20:24;;;;;;;13.83;7.37;;;11.50;99.90;;;;;;5045553;27;20201;-71
2021/04/04 05:22:50;;;;;;;14.93;6.50;;;11.60;99.90;;;;;;5048065;27;20181;-71
2021/04/04 05:25:17;;;;;;;14.17;6.70;;;11.60;99.90;;;;;;5069015;27;20733;-70
2021/04/04 05:27:43;;;;;;;13.30;6.80;;;11.40;99.90;;;;;;5063905;27;20524;-71
2021/04/04 05:30:13;;;;;;;14.97;6.93;;;11.40;99.90;;;;;;5051738;27;20804;-71
2021/04/04 05:32:50;;;;;;;13.13;7.40;;;11.40;99.90;;;;;;5051384;27;20211;-71
2021/04/04 05:35:23;;;;;;;11.97;7.37;;;11.50;99.90;;;;;;5057401;27;20180;-71
2021/04/04 05:37:52;;;;;;;12.13;7.07;;;11.50;99.90;;;;;;5034610;27;20237;-71
2021/04/04 05:40:28;;;;;;;12.60;7.37;;;11.70;99.90;;;;;;5033029;27;20220;-71
2021/04/04 05:43:13;;;;;;;15.67;6.87;;;11.70;99.90;;;;;;5041627;27;20634;-71
2021/04/04 05:46:00;;;;;;;14.47;7.00;;;11.90;99.90;;;;;;5035232;27;20333;-71
2021/04/04 05:49:28;;;;;;;10.43;6.80;;;12.00;99.90;;;;;;5040464;27;20195;-71
2021/04/04 05:52:33;;;;;;;12.83;6.97;;;12.30;99.90;;;;;;4983053;28;20230;-71
2021/04/04 05:55:44;;;;;;;13.93;5.73;;;12.50;99.90;;;;;;5057640;27;20192;-71
2021/04/04 05:58:22;;;;;;;10.17;6.00;;;12.80;99.90;;;;;;5044762;27;20529;-71
2021/04/04 06:00:56;;;;;;;11.57;5.07;;;12.90;99.90;;;;;;5043842;27;20665;-68
2021/04/04 06:03:48;;;;;;;11.77;5.97;;;12.90;99.90;;;;;;5108441;27;20177;-69
2021/04/04 06:07:03;;;;;;;12.03;6.23;;;12.80;99.90;;;;;;5035815;27;20252;-69
2021/04/04 06:10:23;;;;;;;13.00;6.30;;;12.70;99.90;;;;;;5044428;27;20203;-69
2021/04/04 06:13:38;;;;;;;10.17;6.13;;;12.60;99.90;;;;;;5039540;27;20249;-69
2021/04/04 06:16:45;;;;;;;8.57;6.03;;;12.70;99.90;;;;;;5006415;28;20851;-71
2021/04/04 06:20:22;;;;;;;12.77;5.90;;;12.80;99.90;;;;;;5106088;27;20206;-71
2021/04/04 06:23:09;;;;;;;11.87;6.17;;;13.10;99.90;;;;;;5018529;27;20204;-68
2021/04/04 06:25:57;;;;;;;10.83;5.70;;;13.10;99.90;;;;;;5042509;27;20192;-68
2021/04/04 06:29:10;;;;;;;10.30;5.73;;;13.20;99.90;;;;;;5061858;27;20208;-69
2021/04/04 06:32:02;;;;;;;11.77;5.60;;;13.20;99.90;;;;;;5029112;27;20290;-68
2021/04/04 06:34:40;;;;;;;11.90;6.10;;;13.30;99.90;;;;;;5063610;27;20189;-69
2021/04/04 06:37:33;;;;;;;12.63;5.20;;;13.30;99.90;;;;;;5056015;27;20184;-68
2021/04/04 06:40:09;;;;;;;15.00;5.97;;;13.40;99.90;;;;;;5045116;27;20204;-68
2021/04/04 06:43:12;;;;;;;16.40;5.53;;;13.50;99.90;;;;;;5022084;27;20240;-68
2021/04/04 06:46:06;;;;;;;10.57;5.43;;;13.50;99.90;;;;;;5040425;27;20902;-68
2021/04/04 06:48:45;;;;;;;12.10;5.60;;;13.70;99.90;;;;;;5051916;27;20180;-70
2021/04/04 06:51:37;;;;;;;10.37;6.10;;;13.70;99.90;;;;;;5029117;28;20287;-70
2021/04/04 06:54:47;;;;;;;11.43;5.50;;;13.70;99.90;;;;;;5045745;27;20276;-71
2021/04/04 06:58:09;;;;;;;10.87;5.83;;;13.80;99.90;;;;;;5044991;27;20675;-69
2021/04/04 07:01:07;;;;;;;9.83;5.90;;;13.70;99.90;;;;;;5042790;27;20201;-71
2021/04/04 07:04:07;;;;;;;12.23;5.20;;;13.80;99.90;;;;;;5033505;27;20192;-71
2021/04/04 07:07:09;;;;;;;11.70;5.70;;;13.70;99.90;;;;;;5050861;27;20188;-72
2021/04/04 07:10:25;;;;;;;9.23;4.63;;;13.80;99.90;;;;;;4998979;28;20540;-72
2021/04/04 07:13:40;;;;;;;12.30;5.73;;;14.30;99.90;;;;;;5025795;28;20291;-71
2021/04/04 07:16:33;;;;;;;10.80;5.40;;;14.40;99.90;;;;;;5044040;28;20223;-72
2021/04/04 07:19:39;;;;;;;9.20;5.40;;;14.30;99.90;;;;;;5043137;28;20192;-72
2021/04/04 07:22:22;;;;;;;11.07;5.70;;;14.40;99.90;;;;;;5040922;27;20216;-68
2021/04/04 07:25:10;;;;;;;7.37;4.70;;;14.30;99.90;;;;;;5041387;27;20184;-69
2021/04/04 07:28:36;;;;;;;9.87;5.63;;;14.60;99.90;;;;;;5026332;27;20260;-69
2021/04/04 07:31:10;;;;;;;9.90;5.73;;;14.70;99.90;;;;;;5005630;28;20982;-67
2021/04/04 07:33:49;;;;;;;14.07;5.50;;;14.70;99.90;;;;;;5042688;27;20236;-70
2021/04/04 07:36:47;;;;;;;10.67;5.23;;;14.60;99.90;;;;;;5062218;27;20669;-67
2021/04/04 07:39:45;;;;;;;9.00;5.00;;;14.70;99.90;;;;;;5041800;27;20203;-69
2021/04/04 07:42:26;;;;;;;13.20;5.47;;;14.90;99.90;;;;;;5053560;27;20205;-69
2021/04/04 07:45:08;;;;;;;10.20;4.77;;;15.00;99.90;;;;;;5033823;27;20184;-66
2021/04/04 07:48:14;;;;;;;8.17;4.73;;;14.90;99.90;;;;;;5008741;28;20188;-68
2021/04/04 07:51:17;;;;;;;6.07;4.33;;;14.90;99.90;;;;;;5036433;27;20279;-67
2021/04/04 07:54:11;;;;;;;15.73;4.93;;;15.60;99.90;;;;;;5041749;27;20191;-71
2021/04/04 07:56:49;;;;;;;8.93;4.50;;;15.80;99.90;;;;;;5054816;27;20222;-71
2021/04/04 07:59:51;;;;;;;10.07;4.57;;;15.70;99.90;;;;;;5040816;27;20283;-69
2021/04/04 08:02:27;;;;;;;10.23;4.93;;;16.00;99.90;;;;;;5053973;27;20212;-69
2021/04/04 08:05:02;;;;;;;9.70;4.73;;;16.10;99.90;;;;;;5058946;27;20521;-71
2021/04/04 08:07:57;;;;;;;8.80;4.67;;;15.90;99.90;;;;;;5049989;27;20199;-71
2021/04/04 08:10:33;;;;;;;6.30;3.90;;;15.70;99.90;;;;;;5024176;27;20185;-69
2021/04/04 08:13:43;;;;;;;14.20;4.53;;;15.60;99.90;;;;;;5045786;27;20610;-71
2021/04/04 08:16:53;;;;;;;7.63;4.40;;;15.70;99.90;;;;;;5042747;27;20245;-71
2021/04/04 08:19:20;;;;;;;12.03;4.00;;;15.60;99.90;;;;;;5058522;27;20280;-71
2021/04/04 08:22:12;;;;;;;7.47;4.43;;;15.70;99.90;;;;;;5038645;27;20291;-70
2021/04/04 08:24:57;;;;;;;8.63;3.97;;;15.90;99.90;;;;;;5040788;27;20185;-70
2021/04/04 08:27:27;;;;;;;8.43;4.47;;;16.00;99.90;;;;;;5053076;27;20176;-71
2021/04/04 08:30:23;;;;;;;8.03;4.20;;;16.00;99.90;;;;;;5076165;27;20181;-71
2021/04/04 08:32:55;;;;;;;6.30;3.50;;;16.00;99.90;;;;;;5040138;27;20230;-71
2021/04/04 08:35:37;;;;;;;8.63;4.10;;;15.80;99.90;;;;;;5034442;27;20193;-72
2021/04/04 08:38:19;;;;;;;11.43;4.03;;;15.90;99.90;;;;;;5022054;28;20192;-72
2021/04/04 08:40:47;;;;;;;7.10;4.20;;;15.90;99.90;;;;;;5023327;27;20271;-70
2021/04/04 08:43:15;;;;;;;17.23;4.20;;;15.80;99.90;;;;;;5035356;27;20199;-72
2021/04/04 08:46:06;;;;;;;8.57;3.93;;;15.70;99.90;;;;;;5022450;27;20544;-71
2021/04/04 08:48:34;;;;;;;7.77;4.10;;;15.80;99.90;;;;;;5055852;27;20208;-72
2021/04/04 08:51:11;;;;;;;6.43;4.20;;;15.90;99.90;;;;;;5053632;27;20260;-71
2021/04/04 08:53:43;;;;;;;7.60;4.13;;;16.00;99.90;;;;;;5039067;27;20299;-71
2021/04/04 08:56:12;;;;;;;8.30;3.77;;;16.30;99.90;;;;;;5058607;27;20702;-69
2021/04/04 08:58:48;;;;;;;6.57;3.80;;;16.40;99.90;;;;;;5061077;27;20900;-71
2021/04/04 09:01:58;;;;;;;7.40;4.20;;;16.30;99.90;;;;;;5051352;27;20284;-72
2021/04/04 09:04:26;;;;;;;9.33;4.73;;;16.20;99.90;;;;;;4991750;28;20724;-69
2021/04/04 09:06:52;;;;;;;8.27;4.10;;;16.20;99.90;;;;;;5034673;27;20678;-69
2021/04/04 09:09:26;;;;;;;9.03;4.20;;;16.20;99.90;;;;;;5032474;27;20655;-70
2021/04/04 09:11:58;;;;;;;7.13;4.10;;;16.40;99.90;;;;;;5026814;28;20184;-68
2021/04/04 09:14:32;;;;;;;12.90;4.83;;;16.40;99.90;;;;;;5017832;28;20185;-68
2021/04/04 09:17:05;;;;;;;9.40;4.30;;;16.40;99.90;;;;;;5012429;28;20340;-68
2021/04/04 09:19:38;;;;;;;7.90;4.27;;;16.40;99.90;;;;;;5042380;27;20196;-67
2021/04/04 09:22:13;;;;;;;8.60;4.67;;;16.40;99.90;;;;;;5028553;27;20208;-70
2021/04/04 09:25:09;;;;;;;7.83;4.37;;;16.50;99.90;;;;;;5030142;27;20184;-70
2021/04/04 09:27:41;;;;;;;8.97;4.43;;;16.30;99.90;;;;;;5016635;28;20570;-72
2021/04/04 09:30:23;;;;;;;6.27;4.17;;;16.20;99.90;;;;;;5024755;27;20177;-71
2021/04/04 09:32:59;;;;;;;6.73;3.80;;;16.30;99.90;;;;;;5036529;27;20202;-71
2021/04/04 09:35:27;;;;;;;6.80;3.73;;;16.60;99.90;;;;;;5045232;27;20211;-68
2021/04/04 09:38:13;;;;;;;6.77;4.10;;;16.70;99.90;;;;;;5048894;27;20688;-71
2021/04/04 09:40:46;;;;;;;6.70;4.00;;;16.90;99.90;;;;;;5042394;27;20209;-71
2021/04/04 09:43:16;;;;;;;10.83;3.90;;;16.90;99.90;;;;;;5036588;27;20185;-71
2021/04/04 09:45:44;;;;;;;7.30;3.70;;;17.00;99.90;;;;;;5035363;27;20199;-70
2021/04/04 09:48:18;;;;;;;6.30;3.57;;;17.10;99.90;;;;;;5022182;27;20191;-70
2021/04/04 09:50:45;;;;;;;11.00;3.40;;;17.30;99.90;;;;;;5057919;27;20238;-69
2021/04/04 09:53:11;;;;;;;11.20;3.87;;;17.20;99.90;;;;;;5047500;27;20200;-70
2021/04/04 09:55:45;;;;;;;8.13;3.77;;;17.10;99.90;;;;;;5035638;28;20180;-68
2021/04/04 09:58:28;;;;;;;7.87;3.60;;;17.10;99.90;;;;;;5026395;27;20680;-71
2021/04/04 10:00:54;;;;;;;8.87;3.50;;;17.30;99.90;;;;;;5052104;27;20204;-71
2021/04/04 10:03:20;;;;;;;8.83;3.60;;;17.50;99.90;;;;;;5035290;27;20184;-71
2021/04/04 10:05:50;;;;;;;6.03;3.30;;;17.80;99.90;;;;;;5052432;27;20207;-70
2021/04/04 10:08:29;;;;;;;5.30;3.20;;;18.00;99.90;;;;;;5045221;27;20174;-71
2021/04/04 10:10:58;;;;;;;7.67;3.10;;;18.00;99.90;;;;;;5020732;27;20187;-71
2021/04/04 10:13:30;;;;;;;5.27;2.90;;;18.30;99.90;;;;;;5033761;27;20197;-71
2021/04/04 10:15:58;;;;;;;9.33;3.20;;;18.30;99.90;;;;;;5021750;27;20349;-71
2021/04/04 10:18:26;;;;;;;9.53;3.30;;;18.50;99.90;;;;;;5099488;27;20192;-70
2021/04/04 10:20:55;;;;;;;6.43;3.23;;;18.50;99.90;;;;;;5056179;27;20189;-70
2021/04/04 10:23:31;;;;;;;5.63;2.80;;;18.70;99.90;;;;;;5042104;27;20177;-70
2021/04/04 10:26:05;;;;;;;10.03;3.20;;;18.60;99.90;;;;;;5062733;27;20690;-71
2021/04/04 10:29:00;;;;;;;5.97;3.17;;;18.80;99.90;;;;;;5030829;27;20214;-70
2021/04/04 10:31:46;;;;;;;6.17;2.90;;;19.00;99.90;;;;;;5045115;27;20753;-69
2021/04/04 10:34:13;;;;;;;9.47;3.10;;;19.20;99.90;;;;;;5022669;27;20695;-70
2021/04/04 10:36:39;;;;;;;6.63;3.03;;;19.50;99.90;;;;;;5026798;27;20196;-70
2021/04/04 10:39:22;;;;;;;9.50;3.37;;;19.30;99.90;;;;;;5048479;27;20181;-69
2021/04/04 10:41:51;;;;;;;7.43;3.00;;;19.30;99.90;;;;;;5017070;27;20211;-70
2021/04/04 10:44:22;;;;;;;5.93;2.90;;;19.50;99.90;;;;;;5032718;27;20185;-70
2021/04/04 10:46:49;;;;;;;6.10;2.97;;;19.40;99.90;;;;;;5021296;27;20180;-70
2021/04/04 10:49:16;;;;;;;6.47;3.03;;;19.20;99.90;;;;;;5100917;27;20239;-69
2021/04/04 10:51:44;;;;;;;6.77;2.93;;;19.20;99.90;;;;;;5020103;27;20192;-69
2021/04/04 10:54:11;;;;;;;7.20;3.20;;;19.00;99.90;;;;;;5025628;27;20206;-69
2021/04/04 10:56:37;;;;;;;6.67;2.50;;;18.90;99.90;;;;;;5039336;28;20856;-70
2021/04/04 10:59:05;;;;;;;11.50;2.90;;;19.20;99.90;;;;;;5044374;27;20668;-70
2021/04/04 11:01:33;;;;;;;5.17;2.47;;;19.40;99.90;;;;;;5044691;27;20205;-71
2021/04/04 11:04:01;;;;;;;5.90;2.60;;;19.40;99.90;;;;;;5040578;27;20207;-69
2021/04/04 11:06:28;;;;;;;4.17;2.50;;;19.40;99.90;;;;;;5017515;28;20180;-71
2021/04/04 11:08:54;;;;;;;7.73;2.40;;;19.20;99.90;;;;;;5029952;28;20212;-68
2021/04/04 11:11:21;;;;;;;8.97;2.70;;;19.20;99.90;;;;;;5023691;28;20611;-69
2021/04/04 11:13:54;;;;;;;9.73;2.73;;;19.40;99.90;;;;;;5028451;28;20788;-68
2021/04/04 11:16:25;;;;;;;7.17;2.90;;;19.20;99.90;;;;;;5043734;28;20237;-72
2021/04/04 11:18:56;;;;;;;5.47;2.80;;;19.30;99.90;;;;;;5018692;28;20278;-70
2021/04/04 11:21:38;;;;;;;8.47;2.60;;;19.30;99.90;;;;;;5021091;28;20200;-69
2021/04/04 11:24:15;;;;;;;7.10;2.40;;;19.40;99.90;;;;;;5023283;28;20260;-69
2021/04/04 11:27:00;;;;;;;6.17;2.70;;;19.40;99.90;;;;;;5024697;28;20244;-69
2021/04/04 11:29:27;;;;;;;4.97;2.70;;;19.30;99.90;;;;;;5021013;28;20709;-69
2021/04/04 11:32:16;;;;;;;6.43;2.33;;;19.00;99.90;;;;;;5025917;28;20263;-71
2021/04/04 11:34:43;;;;;;;7.47;2.70;;;18.80;99.90;;;;;;5003614;28;20235;-71
2021/04/04 11:37:12;;;;;;;5.00;2.67;;;19.00;99.90;;;;;;5024906;28;20193;-71
2021/04/04 11:39:40;;;;;;;5.67;2.57;;;19.00;99.90;;;;;;5027434;28;20192;-72
2021/04/04 11:42:21;;;;;;;5.97;2.80;;;19.10;99.90;;;;;;5022076;28;20616;-69
2021/04/04 11:44:53;;;;;;;9.20;2.60;;;19.20;99.90;;;;;;5024422;28;20649;-69
2021/04/04 11:47:19;;;;;;;5.77;2.40;;;19.20;99.90;;;;;;5032906;28;20173;-70
2021/04/04 11:49:49;;;;;;;3.07;2.27;;;19.10;99.90;;;;;;5010670;28;20196;-70
2021/04/04 11:52:18;;;;;;;8.13;2.87;;;19.30;99.90;;;;;;5029549;28;20269;-69
2021/04/04 11:54:50;;;;;;;6.77;2.73;;;19.50;99.90;;;;;;5022262;28;20734;-71
2021/04/04 11:57:34;;;;;;;6.97;2.63;;;19.50;99.90;;;;;;5020326;28;20212;-71
2021/04/04 12:00:11;;;;;;;5.40;2.70;;;19.30;99.90;;;;;;5019345;28;20230;-71
2021/04/04 12:03:02;;;;;;;7.43;2.93;;;19.30;99.90;;;;;;5023088;28;20241;-71
2021/04/04 12:05:38;;;;;;;6.63;2.83;;;19.20;99.90;;;;;;5041094;28;20185;-70
2021/04/04 12:08:06;;;;;;;5.63;2.80;;;19.40;99.90;;;;;;5032884;27;20172;-70
2021/04/04 12:10:40;;;;;;;7.40;3.50;;;19.50;99.90;;;;;;5029849;28;20219;-70
2021/04/04 12:13:17;;;;;;;10.10;2.77;;;19.60;99.90;;;;;;5030207;27;20713;-70
2021/04/04 12:15:44;;;;;;;5.90;3.10;;;19.40;99.90;;;;;;5027481;27;20184;-71
2021/04/04 12:18:11;;;;;;;7.07;3.30;;;19.00;99.90;;;;;;5019206;27;20216;-71
2021/04/04 12:20:39;;;;;;;7.23;3.20;;;19.20;99.90;;;;;;4996653;27;20188;-71
2021/04/04 12:23:12;;;;;;;7.03;3.10;;;19.30;99.90;;;;;;5021611;27;20188;-71
2021/04/04 12:25:39;;;;;;;6.10;3.13;;;19.30;99.90;;;;;;5026332;27;20189;-71
2021/04/04 12:28:07;;;;;;;5.80;2.87;;;18.90;99.90;;;;;;5006985;28;20860;-71
2021/04/04 12:30:35;;;;;;;6.53;2.83;;;19.10;99.90;;;;;;5007433;27;20268;-71
2021/04/04 12:33:05;;;;;;;5.67;2.70;;;19.20;99.90;;;;;;5023603;27;20195;-71
2021/04/04 12:35:34;;;;;;;6.43;2.83;;;19.40;99.90;;;;;;5031373;27;21103;-71
2021/04/04 12:38:02;;;;;;;5.13;2.53;;;19.30;99.90;;;;;;5017919;27;20255;-71
2021/04/04 12:40:29;;;;;;;5.80;2.87;;;19.30;99.90;;;;;;5022330;27;20722;-71
2021/04/04 12:43:05;;;;;;;4.10;2.70;;;19.10;99.90;;;;;;5049769;27;20188;-71
2021/04/04 12:45:37;;;;;;;5.33;2.53;;;19.00;99.90;;;;;;5020606;28;20271;-70
2021/04/04 12:48:22;;;;;;;8.87;2.87;;;19.10;99.90;;;;;;5023845;28;20191;-71
2021/04/04 12:50:51;;;;;;;5.27;2.93;;;19.10;99.90;;;;;;5020511;28;20260;-71
2021/04/04 12:53:27;;;;;;;3.30;2.57;;;18.70;99.90;;;;;;5015621;28;20250;-71
2021/04/04 12:55:55;;;;;;;9.77;2.63;;;18.60;99.90;;;;;;5019852;28;20240;-71
2021/04/04 12:58:36;;;;;;;7.07;2.80;;;18.80;99.90;;;;;;5028766;28;20235;-71
2021/04/04 13:01:04;;;;;;;7.70;2.60;;;19.10;99.90;;;;;;5022070;28;20697;-71
2021/04/04 13:03:36;;;;;;;6.80;2.93;;;19.10;99.90;;;;;;5022132;28;20180;-71
2021/04/04 13:06:03;;;;;;;11.60;2.87;;;19.00;99.90;;;;;;5008396;28;20185;-71
2021/04/04 13:08:35;;;;;;;4.30;2.60;;;19.00;99.90;;;;;;5026160;28;20187;-70
2021/04/04 13:11:06;;;;;;;6.27;2.70;;;18.90;99.90;;;;;;5022684;28;20788;-70
2021/04/04 13:13:38;;;;;;;6.13;2.67;;;19.00;99.90;;;;;;5023471;28;20283;-70
2021/04/04 13:16:13;;;;;;;7.50;2.70;;;18.90;99.90;;;;;;5019811;28;20708;-70
2021/04/04 13:18:45;;;;;;;4.17;2.33;;;18.70;99.90;;;;;;5022560;28;20184;-70
2021/04/04 13:21:23;;;;;;;5.00;2.77;;;18.60;99.90;;;;;;5013211;28;20212;-71
2021/04/04 13:23:52;;;;;;;5.50;2.43;;;18.20;99.90;;;;;;5012660;28;20180;-70
2021/04/04 13:26:25;;;;;;;7.83;2.80;;;18.40;99.90;;;;;;5013073;28;20216;-70
2021/04/04 13:29:07;;;;;;;9.00;2.87;;;18.40;99.90;;;;;;5018517;28;20184;-70
2021/04/04 13:31:35;;;;;;;5.27;2.57;;;18.50;99.90;;;;;;5032793;27;20715;-69